RPA3429 KAUS-KEWR
Flight info
| Callsign | RPA3429 |
|---|---|
| Flight time | 3h 25m |
| Altitude | 31000 |
| Route | ILEXY4 ZENZI LFK SUTTN J29 CARIN MEMFS Q29 DORET J584 SLT FQM3 |
| Aircraft | E75L/M-SDE3GILORVW/S |
Departure
| Time | 2026-05-04 02:06 |
|---|---|
| Airport | Austin Bergstrom International Airport (KAUS) |
Arrival
| Time | 2026-05-04 05:31 |
|---|---|
| Airport | Newark Liberty International Airport (KEWR) |
| Time | Latitude | Longitude | Altitude | Speed | Heading |
|---|---|---|---|---|---|
| 2026-05-04 01:39 | 30.20270 | -97.67068 | 518 ft | 0 kts | 178° |
| 2026-05-04 01:50 | 30.20283 | -97.67068 | 518 ft | 4 kts | 181° |
| 2026-05-04 01:51 | 30.20309 | -97.67064 | 518 ft | 4 kts | 203° |
| 2026-05-04 01:51 | 30.20324 | -97.67045 | 517 ft | 3 kts | 266° |
| 2026-05-04 01:51 | 30.20324 | -97.67042 | 517 ft | 0 kts | 268° |
| 2026-05-04 01:55 | 30.20324 | -97.67043 | 517 ft | 0 kts | 268° |
| 2026-05-04 01:55 | 30.20324 | -97.67054 | 518 ft | 3 kts | 268° |
| 2026-05-04 01:55 | 30.20323 | -97.67088 | 518 ft | 6 kts | 269° |
| 2026-05-04 01:56 | 30.20322 | -97.67143 | 520 ft | 8 kts | 269° |
| 2026-05-04 01:56 | 30.20321 | -97.67218 | 522 ft | 10 kts | 267° |
| 2026-05-04 01:56 | 30.20268 | -97.67257 | 522 ft | 12 kts | 179° |
| 2026-05-04 01:56 | 30.20179 | -97.67256 | 520 ft | 12 kts | 179° |
| 2026-05-04 01:57 | 30.20109 | -97.67261 | 520 ft | 8 kts | 219° |
| 2026-05-04 01:57 | 30.20096 | -97.67317 | 521 ft | 7 kts | 289° |
| 2026-05-04 01:57 | 30.20139 | -97.67339 | 523 ft | 7 kts | 356° |
| 2026-05-04 01:57 | 30.20195 | -97.67340 | 524 ft | 9 kts | 359° |
| 2026-05-04 01:58 | 30.20264 | -97.67342 | 526 ft | 11 kts | 359° |
| 2026-05-04 01:58 | 30.20351 | -97.67344 | 528 ft | 14 kts | 358° |
| 2026-05-04 01:58 | 30.20457 | -97.67347 | 530 ft | 16 kts | 359° |
| 2026-05-04 01:58 | 30.20576 | -97.67351 | 533 ft | 18 kts | 358° |
| 2026-05-04 01:59 | 30.20700 | -97.67365 | 535 ft | 17 kts | 343° |
| 2026-05-04 01:59 | 30.20807 | -97.67399 | 537 ft | 16 kts | 345° |
| 2026-05-04 01:59 | 30.20914 | -97.67432 | 538 ft | 15 kts | 345° |
| 2026-05-04 01:59 | 30.21004 | -97.67460 | 541 ft | 13 kts | 345° |
| 2026-05-04 02:00 | 30.21085 | -97.67484 | 542 ft | 12 kts | 347° |
| 2026-05-04 02:00 | 30.21166 | -97.67510 | 542 ft | 13 kts | 345° |
| 2026-05-04 02:00 | 30.21255 | -97.67536 | 542 ft | 13 kts | 345° |
| 2026-05-04 02:00 | 30.21324 | -97.67570 | 543 ft | 10 kts | 319° |
| 2026-05-04 02:01 | 30.21351 | -97.67640 | 544 ft | 10 kts | 272° |
| 2026-05-04 02:01 | 30.21350 | -97.67723 | 544 ft | 11 kts | 269° |
| 2026-05-04 02:01 | 30.21348 | -97.67805 | 544 ft | 8 kts | 268° |
| 2026-05-04 02:01 | 30.21348 | -97.67822 | 545 ft | 0 kts | 268° |
| 2026-05-04 02:02 | 30.21348 | -97.67827 | 545 ft | 2 kts | 268° |
| 2026-05-04 02:02 | 30.21347 | -97.67861 | 545 ft | 6 kts | 268° |
| 2026-05-04 02:02 | 30.21340 | -97.67925 | 545 ft | 7 kts | 234° |
| 2026-05-04 02:03 | 30.21306 | -97.67934 | 544 ft | 0 kts | 181° |
| 2026-05-04 02:05 | 30.21301 | -97.67934 | 544 ft | 2 kts | 181° |
| 2026-05-04 02:05 | 30.21218 | -97.67934 | 543 ft | 36 kts | 179° |
| 2026-05-04 02:05 | 30.20759 | -97.67922 | 539 ft | 98 kts | 180° |
| 2026-05-04 02:06 | 30.19875 | -97.67899 | 522 ft | 153 kts | 178° |
| 2026-05-04 02:06 | 30.18716 | -97.67858 | 856 ft | 175 kts | 179° |
| 2026-05-04 02:06 | 30.17475 | -97.67823 | 1391 ft | 191 kts | 178° |
| 2026-05-04 02:06 | 30.16139 | -97.67773 | 2153 ft | 192 kts | 178° |
| 2026-05-04 02:07 | 30.14786 | -97.67740 | 2841 ft | 195 kts | 178° |
| 2026-05-04 02:07 | 30.13449 | -97.67701 | 3438 ft | 200 kts | 178° |
| 2026-05-04 02:07 | 30.12048 | -97.67649 | 3967 ft | 206 kts | 178° |
| 2026-05-04 02:07 | 30.10662 | -97.67380 | 4509 ft | 211 kts | 153° |
| 2026-05-04 02:08 | 30.09647 | -97.66077 | 5135 ft | 224 kts | 118° |
| 2026-05-04 02:08 | 30.09175 | -97.64259 | 5335 ft | 259 kts | 98° |
| 2026-05-04 02:08 | 30.09384 | -97.62109 | 5625 ft | 286 kts | 70° |
| 2026-05-04 02:08 | 30.10215 | -97.59980 | 6341 ft | 292 kts | 65° |
| 2026-05-04 02:09 | 30.11099 | -97.57854 | 7098 ft | 293 kts | 64° |
| 2026-05-04 02:09 | 30.11986 | -97.55733 | 7847 ft | 295 kts | 64° |
| 2026-05-04 02:09 | 30.12877 | -97.53585 | 8553 ft | 298 kts | 63° |
| 2026-05-04 02:09 | 30.13803 | -97.51415 | 9186 ft | 302 kts | 62° |
| 2026-05-04 02:10 | 30.14754 | -97.49268 | 9808 ft | 305 kts | 60° |
| 2026-05-04 02:10 | 30.15740 | -97.47096 | 10175 ft | 318 kts | 60° |
| 2026-05-04 02:10 | 30.16850 | -97.44783 | 10213 ft | 340 kts | 58° |
| 2026-05-04 02:10 | 30.18084 | -97.42356 | 10337 ft | 357 kts | 57° |
| 2026-05-04 02:11 | 30.19340 | -97.39847 | 10851 ft | 360 kts | 59° |
| 2026-05-04 02:11 | 30.20533 | -97.37318 | 11457 ft | 360 kts | 60° |
| 2026-05-04 02:11 | 30.21707 | -97.34776 | 12023 ft | 363 kts | 60° |
| 2026-05-04 02:11 | 30.22868 | -97.32302 | 12543 ft | 366 kts | 59° |
| 2026-05-04 02:12 | 30.24112 | -97.29716 | 13175 ft | 370 kts | 59° |
| 2026-05-04 02:12 | 30.25396 | -97.27116 | 13794 ft | 374 kts | 58° |
| 2026-05-04 02:12 | 30.26677 | -97.24554 | 14344 ft | 378 kts | 58° |
| 2026-05-04 02:12 | 30.27991 | -97.21943 | 14915 ft | 381 kts | 57° |
| 2026-05-04 02:13 | 30.29344 | -97.19276 | 15507 ft | 385 kts | 57° |
| 2026-05-04 02:13 | 30.30702 | -97.16630 | 16042 ft | 389 kts | 56° |
| 2026-05-04 02:13 | 30.32104 | -97.13938 | 16583 ft | 393 kts | 55° |
| 2026-05-04 02:13 | 30.33526 | -97.11242 | 17102 ft | 397 kts | 54° |
| 2026-05-04 02:14 | 30.34866 | -97.08514 | 17576 ft | 404 kts | 64° |
| 2026-05-04 02:14 | 30.35462 | -97.05307 | 18078 ft | 414 kts | 85° |
| 2026-05-04 02:14 | 30.35411 | -97.02164 | 18509 ft | 420 kts | 92° |
| 2026-05-04 02:14 | 30.35105 | -96.98781 | 18899 ft | 426 kts | 96° |
| 2026-05-04 02:15 | 30.34750 | -96.95557 | 19300 ft | 430 kts | 96° |
| 2026-05-04 02:15 | 30.34427 | -96.92173 | 19717 ft | 434 kts | 94° |
| 2026-05-04 02:15 | 30.34179 | -96.88757 | 20135 ft | 438 kts | 92° |
| 2026-05-04 02:15 | 30.33967 | -96.85225 | 20562 ft | 442 kts | 92° |
| 2026-05-04 02:16 | 30.33766 | -96.81994 | 20930 ft | 446 kts | 92° |
| 2026-05-04 02:16 | 30.33536 | -96.78554 | 21332 ft | 451 kts | 92° |
| 2026-05-04 02:16 | 30.33311 | -96.74980 | 21731 ft | 455 kts | 92° |
| 2026-05-04 02:16 | 30.33093 | -96.71371 | 22140 ft | 459 kts | 92° |
| 2026-05-04 02:17 | 30.32868 | -96.67663 | 22556 ft | 463 kts | 92° |
| 2026-05-04 02:17 | 30.32636 | -96.63923 | 22959 ft | 467 kts | 92° |
| 2026-05-04 02:17 | 30.32411 | -96.60318 | 23338 ft | 471 kts | 92° |
| 2026-05-04 02:17 | 30.32169 | -96.56503 | 23689 ft | 475 kts | 92° |
| 2026-05-04 02:18 | 30.31931 | -96.52773 | 24014 ft | 477 kts | 92° |
| 2026-05-04 02:18 | 30.31686 | -96.48935 | 24358 ft | 479 kts | 92° |
| 2026-05-04 02:18 | 30.31444 | -96.45166 | 24690 ft | 482 kts | 92° |
| 2026-05-04 02:18 | 30.31196 | -96.41323 | 25039 ft | 484 kts | 92° |
| 2026-05-04 02:19 | 30.30949 | -96.37515 | 25367 ft | 487 kts | 92° |
| 2026-05-04 02:19 | 30.30743 | -96.34369 | 25683 ft | 487 kts | 92° |
| 2026-05-04 02:19 | 30.30504 | -96.30726 | 26116 ft | 486 kts | 92° |
| 2026-05-04 02:19 | 30.30248 | -96.26819 | 26499 ft | 486 kts | 92° |
| 2026-05-04 02:20 | 30.29993 | -96.22952 | 26908 ft | 486 kts | 91° |
| 2026-05-04 02:20 | 30.29737 | -96.19101 | 27305 ft | 486 kts | 91° |
| 2026-05-04 02:20 | 30.29486 | -96.15305 | 27688 ft | 486 kts | 91° |
| 2026-05-04 02:20 | 30.29219 | -96.11331 | 28085 ft | 487 kts | 91° |
| 2026-05-04 02:21 | 30.29144 | -96.07434 | 28415 ft | 482 kts | 79° |
| 2026-05-04 02:21 | 30.30009 | -96.03789 | 28807 ft | 464 kts | 56° |
| 2026-05-04 02:21 | 30.31108 | -96.01656 | 29137 ft | 452 kts | 46° |
| 2026-05-04 02:21 | 30.33673 | -95.97908 | 29611 ft | 446 kts | 40° |
| 2026-05-04 02:22 | 30.35705 | -95.95192 | 30011 ft | 446 kts | 40° |
| 2026-05-04 02:22 | 30.37664 | -95.92413 | 30391 ft | 447 kts | 42° |
| 2026-05-04 02:22 | 30.38883 | -95.90586 | 30604 ft | 448 kts | 43° |
| 2026-05-04 02:22 | 30.40753 | -95.87688 | 30987 ft | 447 kts | 44° |
| 2026-05-04 02:23 | 30.44489 | -95.81931 | 30886 ft | 467 kts | 43° |
| 2026-05-04 02:23 | 30.48498 | -95.75898 | 30929 ft | 479 kts | 44° |
| 2026-05-04 02:24 | 30.52430 | -95.69923 | 30987 ft | 478 kts | 44° |
| 2026-05-04 02:24 | 30.56383 | -95.63909 | 31006 ft | 478 kts | 44° |
| 2026-05-04 02:25 | 30.60355 | -95.57871 | 31017 ft | 478 kts | 44° |
| 2026-05-04 02:25 | 30.64328 | -95.51817 | 31027 ft | 478 kts | 44° |
| 2026-05-04 02:26 | 30.68314 | -95.45735 | 31027 ft | 478 kts | 44° |
| 2026-05-04 02:26 | 30.72095 | -95.39959 | 31025 ft | 478 kts | 44° |
| 2026-05-04 02:27 | 30.76064 | -95.33887 | 31023 ft | 479 kts | 44° |
| 2026-05-04 02:27 | 30.80070 | -95.27746 | 31020 ft | 479 kts | 44° |
| 2026-05-04 02:28 | 30.83972 | -95.21754 | 31022 ft | 479 kts | 44° |
| 2026-05-04 02:28 | 30.87952 | -95.15634 | 31018 ft | 479 kts | 44° |
| 2026-05-04 02:29 | 30.91916 | -95.09530 | 31021 ft | 479 kts | 44° |
| 2026-05-04 02:29 | 30.95859 | -95.03450 | 31018 ft | 478 kts | 44° |
| 2026-05-04 02:30 | 30.99690 | -94.97529 | 31019 ft | 478 kts | 44° |
| 2026-05-04 02:30 | 31.03552 | -94.91556 | 31024 ft | 477 kts | 43° |
| 2026-05-04 02:31 | 31.07547 | -94.85370 | 31027 ft | 477 kts | 43° |
| 2026-05-04 02:31 | 31.11490 | -94.79251 | 31025 ft | 476 kts | 43° |
| 2026-05-04 02:32 | 31.15400 | -94.73169 | 31023 ft | 475 kts | 42° |
| 2026-05-04 02:32 | 31.17633 | -94.70354 | 31045 ft | 460 kts | 32° |
| 2026-05-04 02:32 | 31.19941 | -94.67975 | 31050 ft | 457 kts | 29° |
| 2026-05-04 02:33 | 31.24804 | -94.63351 | 31016 ft | 453 kts | 28° |
| 2026-05-04 02:33 | 31.29651 | -94.58718 | 31031 ft | 455 kts | 28° |
| 2026-05-04 02:34 | 31.34472 | -94.54013 | 31027 ft | 454 kts | 29° |
| 2026-05-04 02:34 | 31.39239 | -94.49364 | 31030 ft | 454 kts | 28° |
| 2026-05-04 02:35 | 31.44030 | -94.44696 | 31027 ft | 453 kts | 28° |
| 2026-05-04 02:35 | 31.48848 | -94.39998 | 31034 ft | 453 kts | 28° |
| 2026-05-04 02:36 | 31.53717 | -94.35240 | 31032 ft | 453 kts | 28° |
| 2026-05-04 02:36 | 31.58409 | -94.30648 | 31026 ft | 453 kts | 28° |
| 2026-05-04 02:37 | 31.63160 | -94.25991 | 31031 ft | 452 kts | 28° |
| 2026-05-04 02:37 | 31.67955 | -94.21286 | 31032 ft | 452 kts | 29° |
| 2026-05-04 02:38 | 31.72723 | -94.16600 | 31030 ft | 452 kts | 29° |
| 2026-05-04 02:38 | 31.77544 | -94.11854 | 31028 ft | 452 kts | 29° |
| 2026-05-04 02:39 | 31.82299 | -94.07170 | 31026 ft | 452 kts | 29° |
| 2026-05-04 02:39 | 31.87073 | -94.02459 | 31024 ft | 452 kts | 29° |
| 2026-05-04 02:40 | 31.91876 | -93.97712 | 31025 ft | 452 kts | 30° |
| 2026-05-04 02:40 | 31.96661 | -93.92979 | 31015 ft | 452 kts | 30° |
| 2026-05-04 02:41 | 32.01345 | -93.88335 | 31015 ft | 452 kts | 30° |
| 2026-05-04 02:41 | 32.06104 | -93.83610 | 31018 ft | 452 kts | 30° |
| 2026-05-04 02:42 | 32.10848 | -93.78896 | 31017 ft | 452 kts | 30° |
| 2026-05-04 02:42 | 32.15486 | -93.74281 | 31013 ft | 451 kts | 30° |
| 2026-05-04 02:43 | 32.20163 | -93.69623 | 31013 ft | 452 kts | 30° |
| 2026-05-04 02:43 | 32.25036 | -93.64759 | 31008 ft | 452 kts | 30° |
| 2026-05-04 02:44 | 32.29702 | -93.60093 | 31001 ft | 452 kts | 31° |
| 2026-05-04 02:44 | 32.34367 | -93.55425 | 30998 ft | 451 kts | 31° |
| 2026-05-04 02:45 | 32.39035 | -93.50750 | 31001 ft | 452 kts | 31° |
| 2026-05-04 02:45 | 32.43803 | -93.45961 | 31001 ft | 451 kts | 31° |
| 2026-05-04 02:46 | 32.48560 | -93.41182 | 31014 ft | 451 kts | 31° |
| 2026-05-04 02:46 | 32.53313 | -93.36401 | 31018 ft | 451 kts | 31° |
| 2026-05-04 02:47 | 32.57961 | -93.31713 | 31019 ft | 451 kts | 31° |
| 2026-05-04 02:47 | 32.62676 | -93.26949 | 31021 ft | 451 kts | 31° |
| 2026-05-04 02:48 | 32.67284 | -93.22293 | 31018 ft | 451 kts | 31° |
| 2026-05-04 02:48 | 32.71971 | -93.17551 | 31012 ft | 450 kts | 32° |
| 2026-05-04 02:49 | 32.76663 | -93.12792 | 31010 ft | 451 kts | 32° |
| 2026-05-04 02:49 | 32.81368 | -93.08019 | 31007 ft | 450 kts | 32° |
| 2026-05-04 02:50 | 32.85919 | -93.03391 | 31001 ft | 450 kts | 32° |
| 2026-05-04 02:50 | 32.90521 | -92.98704 | 31106 ft | 451 kts | 32° |
| 2026-05-04 02:51 | 32.95177 | -92.93958 | 31099 ft | 450 kts | 32° |
| 2026-05-04 02:51 | 32.99892 | -92.89146 | 31087 ft | 449 kts | 32° |
| 2026-05-04 02:52 | 33.04505 | -92.84435 | 31097 ft | 450 kts | 32° |
| 2026-05-04 02:52 | 33.09173 | -92.79654 | 31090 ft | 450 kts | 32° |
| 2026-05-04 02:53 | 33.13834 | -92.74869 | 31094 ft | 450 kts | 32° |
| 2026-05-04 02:53 | 33.18507 | -92.70071 | 31095 ft | 449 kts | 33° |
| 2026-05-04 02:54 | 33.23230 | -92.65218 | 31088 ft | 449 kts | 33° |
| 2026-05-04 02:54 | 33.27878 | -92.60423 | 31092 ft | 449 kts | 33° |
| 2026-05-04 02:55 | 33.34887 | -92.53194 | 31085 ft | 449 kts | 33° |
| 2026-05-04 02:56 | 33.39532 | -92.48393 | 31080 ft | 449 kts | 33° |
| 2026-05-04 02:56 | 33.44218 | -92.43540 | 31079 ft | 449 kts | 33° |
| 2026-05-04 02:57 | 33.48875 | -92.38718 | 31077 ft | 449 kts | 33° |
| 2026-05-04 02:57 | 33.53110 | -92.33200 | 31225 ft | 461 kts | 46° |
| 2026-05-04 02:57 | 33.55088 | -92.30161 | 30657 ft | 457 kts | 47° |
| 2026-05-04 02:58 | 33.56926 | -92.27224 | 31057 ft | 446 kts | 46° |
| 2026-05-04 02:58 | 33.58784 | -92.24268 | 31397 ft | 448 kts | 46° |
| 2026-05-04 02:58 | 33.60693 | -92.21271 | 31243 ft | 456 kts | 45° |
| 2026-05-04 02:58 | 33.62647 | -92.18229 | 31135 ft | 460 kts | 45° |
| 2026-05-04 02:59 | 33.64624 | -92.15197 | 30833 ft | 460 kts | 45° |
| 2026-05-04 02:59 | 33.68548 | -92.09256 | 31440 ft | 448 kts | 45° |
| 2026-05-04 02:59 | 33.70458 | -92.06316 | 31201 ft | 459 kts | 45° |
| 2026-05-04 03:00 | 33.72363 | -92.03348 | 30878 ft | 458 kts | 46° |
| 2026-05-04 03:00 | 33.74287 | -92.00316 | 31280 ft | 452 kts | 46° |
| 2026-05-04 03:00 | 33.76233 | -91.97300 | 30829 ft | 459 kts | 45° |
| 2026-05-04 03:00 | 33.78094 | -91.94438 | 31010 ft | 455 kts | 45° |
| 2026-05-04 03:01 | 33.80097 | -91.91316 | 31046 ft | 461 kts | 46° |
| 2026-05-04 03:01 | 33.83901 | -91.85276 | 31114 ft | 459 kts | 46° |
| 2026-05-04 03:02 | 33.87766 | -91.79161 | 31092 ft | 459 kts | 46° |
| 2026-05-04 03:02 | 33.91620 | -91.73197 | 31092 ft | 459 kts | 45° |
| 2026-05-04 03:03 | 33.95527 | -91.67151 | 31101 ft | 459 kts | 46° |
| 2026-05-04 03:03 | 33.99315 | -91.61252 | 31107 ft | 459 kts | 46° |
| 2026-05-04 03:04 | 34.03227 | -91.55150 | 31066 ft | 458 kts | 46° |
| 2026-05-04 03:04 | 34.07129 | -91.49059 | 31078 ft | 458 kts | 46° |
| 2026-05-04 03:05 | 34.10281 | -91.44129 | 31078 ft | 458 kts | 46° |
| 2026-05-04 03:05 | 34.14070 | -91.38197 | 31076 ft | 458 kts | 46° |
| 2026-05-04 03:06 | 34.17815 | -91.32322 | 31078 ft | 458 kts | 46° |
| 2026-05-04 03:06 | 34.21569 | -91.26422 | 31077 ft | 458 kts | 46° |
| 2026-05-04 03:07 | 34.25338 | -91.20488 | 31075 ft | 458 kts | 46° |
| 2026-05-04 03:07 | 34.29009 | -91.14701 | 31074 ft | 458 kts | 46° |
| 2026-05-04 03:08 | 34.32840 | -91.08651 | 31069 ft | 458 kts | 46° |
| 2026-05-04 03:08 | 34.36716 | -91.02520 | 31070 ft | 458 kts | 46° |
| 2026-05-04 03:09 | 34.40430 | -90.96637 | 31068 ft | 458 kts | 46° |
| 2026-05-04 03:09 | 34.44222 | -90.90617 | 31069 ft | 458 kts | 46° |
| 2026-05-04 03:10 | 34.47969 | -90.84653 | 31066 ft | 458 kts | 46° |
| 2026-05-04 03:10 | 34.51806 | -90.78532 | 31067 ft | 458 kts | 46° |
| 2026-05-04 03:11 | 34.55486 | -90.72653 | 31067 ft | 458 kts | 46° |
| 2026-05-04 03:11 | 34.59302 | -90.66548 | 31064 ft | 459 kts | 46° |
| 2026-05-04 03:12 | 34.63073 | -90.60503 | 31062 ft | 459 kts | 46° |
| 2026-05-04 03:12 | 34.66757 | -90.54590 | 31064 ft | 459 kts | 46° |
| 2026-05-04 03:13 | 34.70534 | -90.48515 | 31073 ft | 459 kts | 46° |
| 2026-05-04 03:13 | 34.74312 | -90.42431 | 31084 ft | 459 kts | 46° |
| 2026-05-04 03:14 | 34.78161 | -90.36219 | 31075 ft | 459 kts | 47° |
| 2026-05-04 03:14 | 34.81960 | -90.30079 | 31070 ft | 459 kts | 47° |
| 2026-05-04 03:15 | 34.85672 | -90.24064 | 31061 ft | 459 kts | 47° |
| 2026-05-04 03:15 | 34.89338 | -90.18119 | 31062 ft | 459 kts | 47° |
| 2026-05-04 03:16 | 34.93019 | -90.12138 | 31069 ft | 459 kts | 47° |
| 2026-05-04 03:16 | 34.96742 | -90.06077 | 31073 ft | 459 kts | 47° |
| 2026-05-04 03:17 | 35.00336 | -90.00227 | 31072 ft | 459 kts | 46° |
| 2026-05-04 03:17 | 35.02497 | -89.97445 | 31074 ft | 447 kts | 33° |
| 2026-05-04 03:17 | 35.04902 | -89.95129 | 31106 ft | 445 kts | 30° |
| 2026-05-04 03:18 | 35.09717 | -89.90896 | 31060 ft | 443 kts | 28° |
| 2026-05-04 03:18 | 35.14615 | -89.86605 | 31066 ft | 445 kts | 29° |
| 2026-05-04 03:19 | 35.19459 | -89.82250 | 31060 ft | 445 kts | 29° |
| 2026-05-04 03:19 | 35.24426 | -89.77786 | 31057 ft | 445 kts | 29° |
| 2026-05-04 03:20 | 35.29248 | -89.73462 | 31055 ft | 445 kts | 29° |
| 2026-05-04 03:20 | 35.34210 | -89.69003 | 31059 ft | 445 kts | 29° |
| 2026-05-04 03:21 | 35.39094 | -89.64604 | 31058 ft | 445 kts | 29° |
| 2026-05-04 03:21 | 35.43986 | -89.60192 | 31059 ft | 445 kts | 29° |
| 2026-05-04 03:22 | 35.48945 | -89.55714 | 31054 ft | 445 kts | 29° |
| 2026-05-04 03:22 | 35.53784 | -89.51336 | 31054 ft | 445 kts | 29° |
| 2026-05-04 03:23 | 35.58758 | -89.46829 | 31048 ft | 445 kts | 29° |
| 2026-05-04 03:23 | 35.63584 | -89.42449 | 31047 ft | 445 kts | 29° |
| 2026-05-04 03:24 | 35.68507 | -89.37977 | 31048 ft | 446 kts | 29° |
| 2026-05-04 03:24 | 35.73280 | -89.33633 | 31050 ft | 445 kts | 29° |
| 2026-05-04 03:25 | 35.78231 | -89.29120 | 31048 ft | 445 kts | 29° |
| 2026-05-04 03:25 | 35.83027 | -89.24739 | 31052 ft | 445 kts | 29° |
| 2026-05-04 03:26 | 35.87961 | -89.20228 | 31054 ft | 445 kts | 29° |
| 2026-05-04 03:26 | 35.92799 | -89.15795 | 31050 ft | 445 kts | 29° |
| 2026-05-04 03:27 | 35.97465 | -89.11516 | 31048 ft | 445 kts | 29° |
| 2026-05-04 03:27 | 36.02259 | -89.07110 | 31049 ft | 446 kts | 29° |
| 2026-05-04 03:28 | 36.07053 | -89.02697 | 31034 ft | 445 kts | 29° |
| 2026-05-04 03:28 | 36.11982 | -88.98158 | 31032 ft | 445 kts | 29° |
| 2026-05-04 03:29 | 36.16844 | -88.93655 | 31027 ft | 446 kts | 29° |
| 2026-05-04 03:29 | 36.21643 | -88.89184 | 31028 ft | 446 kts | 29° |
| 2026-05-04 03:30 | 36.26551 | -88.84614 | 31030 ft | 446 kts | 29° |
| 2026-05-04 03:30 | 36.31179 | -88.80300 | 31023 ft | 445 kts | 29° |
| 2026-05-04 03:31 | 36.35934 | -88.75860 | 31026 ft | 446 kts | 29° |
| 2026-05-04 03:31 | 36.40850 | -88.71261 | 31024 ft | 446 kts | 29° |
| 2026-05-04 03:32 | 36.45627 | -88.66786 | 31028 ft | 446 kts | 29° |
| 2026-05-04 03:32 | 36.50329 | -88.62373 | 31029 ft | 445 kts | 29° |
| 2026-05-04 03:33 | 36.55143 | -88.57850 | 31026 ft | 445 kts | 29° |
| 2026-05-04 03:33 | 36.60027 | -88.53251 | 31026 ft | 445 kts | 29° |
| 2026-05-04 03:34 | 36.64906 | -88.48650 | 31032 ft | 445 kts | 29° |
| 2026-05-04 03:34 | 36.69632 | -88.44188 | 31027 ft | 445 kts | 29° |
| 2026-05-04 03:35 | 36.74481 | -88.39600 | 31032 ft | 445 kts | 29° |
| 2026-05-04 03:35 | 36.79406 | -88.34935 | 31022 ft | 444 kts | 29° |
| 2026-05-04 03:36 | 36.84194 | -88.30392 | 31018 ft | 444 kts | 29° |
| 2026-05-04 03:36 | 36.88887 | -88.25929 | 31017 ft | 444 kts | 29° |
| 2026-05-04 03:37 | 36.93690 | -88.21360 | 31000 ft | 444 kts | 29° |
| 2026-05-04 03:37 | 36.98513 | -88.16759 | 30998 ft | 444 kts | 28° |
| 2026-05-04 03:38 | 37.03315 | -88.12171 | 30999 ft | 444 kts | 28° |
| 2026-05-04 03:38 | 37.08090 | -88.07602 | 31004 ft | 444 kts | 28° |
| 2026-05-04 03:39 | 37.12984 | -88.02916 | 31008 ft | 444 kts | 28° |
| 2026-05-04 03:39 | 37.17792 | -87.98300 | 31002 ft | 444 kts | 28° |
| 2026-05-04 03:40 | 37.22480 | -87.93787 | 31000 ft | 444 kts | 28° |
| 2026-05-04 03:40 | 37.27215 | -87.89230 | 31005 ft | 444 kts | 28° |
| 2026-05-04 03:41 | 37.31975 | -87.84639 | 31001 ft | 444 kts | 28° |
| 2026-05-04 03:41 | 37.36369 | -87.79470 | 31013 ft | 454 kts | 37° |
| 2026-05-04 03:42 | 37.40681 | -87.73832 | 30999 ft | 455 kts | 37° |
| 2026-05-04 03:42 | 37.44967 | -87.68233 | 30993 ft | 454 kts | 37° |
| 2026-05-04 03:43 | 37.49344 | -87.62567 | 30994 ft | 454 kts | 37° |
| 2026-05-04 03:43 | 37.53681 | -87.56931 | 30998 ft | 454 kts | 37° |
| 2026-05-04 03:44 | 37.57726 | -87.51661 | 30998 ft | 454 kts | 37° |
| 2026-05-04 03:44 | 37.61905 | -87.46208 | 31000 ft | 454 kts | 37° |
| 2026-05-04 03:45 | 37.66124 | -87.40692 | 31014 ft | 454 kts | 37° |
| 2026-05-04 03:45 | 37.70388 | -87.35106 | 31017 ft | 454 kts | 37° |
| 2026-05-04 03:46 | 37.74414 | -87.29824 | 31016 ft | 455 kts | 37° |
| 2026-05-04 03:46 | 37.77980 | -87.25141 | 31017 ft | 454 kts | 37° |
| 2026-05-04 03:47 | 37.82239 | -87.19538 | 31017 ft | 455 kts | 37° |
| 2026-05-04 03:47 | 37.87310 | -87.12850 | 31007 ft | 455 kts | 37° |
| 2026-05-04 03:48 | 37.90870 | -87.08146 | 31015 ft | 455 kts | 37° |
| 2026-05-04 03:48 | 37.95152 | -87.02485 | 31009 ft | 455 kts | 37° |
| 2026-05-04 03:49 | 37.99436 | -86.96805 | 31004 ft | 455 kts | 37° |
| 2026-05-04 03:49 | 38.03821 | -86.90982 | 31013 ft | 455 kts | 37° |
| 2026-05-04 03:50 | 38.08081 | -86.85314 | 31007 ft | 455 kts | 37° |
| 2026-05-04 03:50 | 38.12346 | -86.79629 | 31008 ft | 455 kts | 37° |
| 2026-05-04 03:51 | 38.16569 | -86.73990 | 31005 ft | 456 kts | 37° |
| 2026-05-04 03:51 | 38.20863 | -86.68251 | 31008 ft | 457 kts | 37° |
| 2026-05-04 03:52 | 38.25149 | -86.62505 | 31003 ft | 457 kts | 37° |
| 2026-05-04 03:52 | 38.29432 | -86.56758 | 30997 ft | 458 kts | 37° |
| 2026-05-04 03:53 | 38.33621 | -86.51121 | 30997 ft | 459 kts | 37° |
| 2026-05-04 03:53 | 38.37806 | -86.45485 | 30994 ft | 460 kts | 37° |
| 2026-05-04 03:54 | 38.42177 | -86.39586 | 30995 ft | 460 kts | 37° |
| 2026-05-04 03:54 | 38.46487 | -86.33761 | 30995 ft | 461 kts | 37° |
| 2026-05-04 03:55 | 38.50736 | -86.28004 | 30996 ft | 461 kts | 38° |
| 2026-05-04 03:55 | 38.55023 | -86.22179 | 30990 ft | 462 kts | 38° |
| 2026-05-04 03:56 | 38.59435 | -86.16171 | 30992 ft | 463 kts | 38° |
| 2026-05-04 03:56 | 38.63589 | -86.10517 | 30990 ft | 464 kts | 38° |
| 2026-05-04 03:57 | 38.67807 | -86.04770 | 30995 ft | 464 kts | 38° |
| 2026-05-04 03:57 | 38.72181 | -85.98785 | 30990 ft | 465 kts | 38° |
| 2026-05-04 03:58 | 38.78627 | -85.89945 | 30995 ft | 466 kts | 38° |
| 2026-05-04 03:58 | 38.82773 | -85.84242 | 31000 ft | 466 kts | 38° |
| 2026-05-04 03:59 | 38.87005 | -85.78421 | 30999 ft | 466 kts | 38° |
| 2026-05-04 03:59 | 38.91375 | -85.72392 | 30998 ft | 466 kts | 39° |
| 2026-05-04 04:00 | 38.95672 | -85.66452 | 31003 ft | 466 kts | 39° |
| 2026-05-04 04:00 | 38.99804 | -85.60740 | 31001 ft | 465 kts | 39° |
| 2026-05-04 04:01 | 39.04093 | -85.54787 | 30984 ft | 465 kts | 39° |
| 2026-05-04 04:01 | 39.08426 | -85.48770 | 30963 ft | 464 kts | 39° |
| 2026-05-04 04:02 | 39.12732 | -85.42767 | 30965 ft | 465 kts | 39° |
| 2026-05-04 04:02 | 39.17032 | -85.36770 | 30966 ft | 464 kts | 39° |
| 2026-05-04 04:03 | 39.21292 | -85.30820 | 30975 ft | 463 kts | 39° |
| 2026-05-04 04:03 | 39.25464 | -85.24978 | 30969 ft | 462 kts | 40° |
| 2026-05-04 04:04 | 39.29746 | -85.18966 | 30969 ft | 461 kts | 40° |
| 2026-05-04 04:04 | 39.33840 | -85.13208 | 30970 ft | 461 kts | 40° |
| 2026-05-04 04:05 | 39.37994 | -85.07361 | 30974 ft | 461 kts | 40° |
| 2026-05-04 04:05 | 39.42134 | -85.01516 | 30980 ft | 461 kts | 40° |
| 2026-05-04 04:06 | 39.46449 | -84.95426 | 30974 ft | 460 kts | 40° |
| 2026-05-04 04:06 | 39.50535 | -84.89632 | 30975 ft | 460 kts | 40° |
| 2026-05-04 04:07 | 39.54668 | -84.83763 | 30980 ft | 459 kts | 40° |
| 2026-05-04 04:07 | 39.58872 | -84.77797 | 30978 ft | 459 kts | 41° |
| 2026-05-04 04:08 | 39.63110 | -84.71768 | 30983 ft | 459 kts | 41° |
| 2026-05-04 04:08 | 39.67220 | -84.65886 | 30969 ft | 459 kts | 41° |
| 2026-05-04 04:09 | 39.71328 | -84.60007 | 30981 ft | 459 kts | 41° |
| 2026-05-04 04:09 | 39.75489 | -84.54071 | 30968 ft | 458 kts | 41° |
| 2026-05-04 04:10 | 39.79710 | -84.48009 | 30973 ft | 458 kts | 41° |
| 2026-05-04 04:10 | 39.83939 | -84.41900 | 30967 ft | 457 kts | 41° |
| 2026-05-04 04:11 | 39.88056 | -84.35959 | 30972 ft | 457 kts | 41° |
| 2026-05-04 04:11 | 39.92301 | -84.29937 | 30974 ft | 454 kts | 38° |
| 2026-05-04 04:12 | 39.96808 | -84.24231 | 30972 ft | 453 kts | 37° |
| 2026-05-04 04:12 | 40.01155 | -84.18839 | 30969 ft | 452 kts | 37° |
| 2026-05-04 04:13 | 40.05597 | -84.13296 | 30975 ft | 453 kts | 37° |
| 2026-05-04 04:13 | 40.09853 | -84.07958 | 30973 ft | 452 kts | 37° |
| 2026-05-04 04:14 | 40.14294 | -84.02383 | 30977 ft | 452 kts | 37° |
| 2026-05-04 04:14 | 40.18703 | -83.96844 | 30968 ft | 452 kts | 38° |
| 2026-05-04 04:15 | 40.23199 | -83.91182 | 30971 ft | 451 kts | 38° |
| 2026-05-04 04:15 | 40.27522 | -83.85725 | 30966 ft | 451 kts | 38° |
| 2026-05-04 04:16 | 40.31962 | -83.80110 | 30966 ft | 451 kts | 38° |
| 2026-05-04 04:16 | 40.36202 | -83.74740 | 30976 ft | 450 kts | 38° |
| 2026-05-04 04:17 | 40.40592 | -83.69168 | 30975 ft | 450 kts | 38° |
| 2026-05-04 04:17 | 40.44964 | -83.63609 | 30969 ft | 449 kts | 38° |
| 2026-05-04 04:18 | 40.49353 | -83.58014 | 30976 ft | 449 kts | 38° |
| 2026-05-04 04:18 | 40.53664 | -83.52394 | 30967 ft | 450 kts | 39° |
| 2026-05-04 04:19 | 40.57855 | -83.46905 | 30974 ft | 449 kts | 39° |
| 2026-05-04 04:19 | 40.62072 | -83.41404 | 30967 ft | 448 kts | 39° |
| 2026-05-04 04:20 | 40.66492 | -83.35625 | 30973 ft | 448 kts | 39° |
| 2026-05-04 04:20 | 40.70643 | -83.29870 | 30985 ft | 451 kts | 45° |
| 2026-05-04 04:21 | 40.74441 | -83.23498 | 30965 ft | 453 kts | 47° |
| 2026-05-04 04:21 | 40.77627 | -83.17971 | 30961 ft | 453 kts | 47° |
| 2026-05-04 04:22 | 40.81975 | -83.10537 | 30969 ft | 452 kts | 47° |
| 2026-05-04 04:22 | 40.85674 | -83.04227 | 30961 ft | 452 kts | 47° |
| 2026-05-04 04:23 | 40.89207 | -82.98170 | 30968 ft | 451 kts | 47° |
| 2026-05-04 04:23 | 40.92709 | -82.92151 | 30965 ft | 451 kts | 47° |
| 2026-05-04 04:24 | 40.96441 | -82.85727 | 30971 ft | 451 kts | 47° |
| 2026-05-04 04:24 | 41.00183 | -82.79273 | 30963 ft | 451 kts | 47° |
| 2026-05-04 04:25 | 41.03726 | -82.73149 | 30965 ft | 451 kts | 47° |
| 2026-05-04 04:25 | 41.06817 | -82.67796 | 30962 ft | 451 kts | 47° |
| 2026-05-04 04:26 | 41.10592 | -82.61246 | 30965 ft | 450 kts | 47° |
| 2026-05-04 04:26 | 41.14208 | -82.54749 | 30956 ft | 453 kts | 54° |
| 2026-05-04 04:27 | 41.17079 | -82.47959 | 30942 ft | 456 kts | 58° |
| 2026-05-04 04:27 | 41.19936 | -82.40690 | 30952 ft | 456 kts | 58° |
| 2026-05-04 04:28 | 41.22635 | -82.33983 | 30953 ft | 456 kts | 57° |
| 2026-05-04 04:28 | 41.25596 | -82.26695 | 30949 ft | 456 kts | 58° |
| 2026-05-04 04:29 | 41.28522 | -82.19434 | 30957 ft | 456 kts | 58° |
| 2026-05-04 04:29 | 41.31422 | -82.12209 | 30953 ft | 457 kts | 58° |
| 2026-05-04 04:30 | 41.34338 | -82.04802 | 30955 ft | 458 kts | 62° |
| 2026-05-04 04:30 | 41.36809 | -81.97278 | 30938 ft | 459 kts | 63° |
| 2026-05-04 04:31 | 41.39270 | -81.89480 | 30940 ft | 459 kts | 64° |
| 2026-05-04 04:31 | 41.41662 | -81.81970 | 30942 ft | 459 kts | 63° |
| 2026-05-04 04:32 | 41.44084 | -81.74386 | 30951 ft | 459 kts | 64° |
| 2026-05-04 04:32 | 41.46468 | -81.66874 | 30947 ft | 459 kts | 64° |
| 2026-05-04 04:33 | 41.48920 | -81.59125 | 30948 ft | 459 kts | 64° |
| 2026-05-04 04:33 | 41.51139 | -81.52092 | 30953 ft | 459 kts | 64° |
| 2026-05-04 04:34 | 41.53560 | -81.44402 | 30955 ft | 459 kts | 64° |
| 2026-05-04 04:34 | 41.55986 | -81.36673 | 30950 ft | 459 kts | 64° |
| 2026-05-04 04:35 | 41.58415 | -81.28904 | 30940 ft | 459 kts | 64° |
| 2026-05-04 04:35 | 41.60829 | -81.21167 | 30930 ft | 459 kts | 64° |
| 2026-05-04 04:36 | 41.63205 | -81.13535 | 30937 ft | 460 kts | 64° |
| 2026-05-04 04:36 | 41.65574 | -81.05899 | 30935 ft | 460 kts | 64° |
| 2026-05-04 04:37 | 41.70173 | -80.91015 | 30954 ft | 460 kts | 65° |
| 2026-05-04 04:38 | 41.72569 | -80.83228 | 30957 ft | 460 kts | 65° |
| 2026-05-04 04:38 | 41.74988 | -80.75336 | 30953 ft | 461 kts | 65° |
| 2026-05-04 04:39 | 41.77302 | -80.67773 | 30955 ft | 460 kts | 65° |
| 2026-05-04 04:39 | 41.79528 | -80.59937 | 30954 ft | 463 kts | 75° |
| 2026-05-04 04:40 | 41.79874 | -80.55683 | 30956 ft | 467 kts | 91° |
| 2026-05-04 04:40 | 41.79614 | -80.51579 | 30979 ft | 467 kts | 96° |
| 2026-05-04 04:40 | 41.78630 | -80.43059 | 30933 ft | 466 kts | 98° |
| 2026-05-04 04:41 | 41.77716 | -80.34691 | 30960 ft | 467 kts | 97° |
| 2026-05-04 04:41 | 41.76929 | -80.26510 | 30961 ft | 467 kts | 97° |
| 2026-05-04 04:42 | 41.76129 | -80.18516 | 30953 ft | 466 kts | 97° |
| 2026-05-04 04:42 | 41.75252 | -80.09988 | 30957 ft | 467 kts | 97° |
| 2026-05-04 04:43 | 41.74458 | -80.02256 | 30969 ft | 466 kts | 97° |
| 2026-05-04 04:43 | 41.73577 | -79.93723 | 30965 ft | 466 kts | 97° |
| 2026-05-04 04:44 | 41.72688 | -79.85208 | 30975 ft | 466 kts | 97° |
| 2026-05-04 04:44 | 41.71806 | -79.76812 | 30974 ft | 467 kts | 97° |
| 2026-05-04 04:45 | 41.70935 | -79.68569 | 30982 ft | 467 kts | 98° |
| 2026-05-04 04:47 | 41.67765 | -79.39092 | 30986 ft | 467 kts | 98° |
| 2026-05-04 04:47 | 41.66848 | -79.30706 | 30988 ft | 468 kts | 98° |
| 2026-05-04 04:48 | 41.65935 | -79.22381 | 30983 ft | 468 kts | 98° |
| 2026-05-04 04:49 | 41.63591 | -79.01512 | 30974 ft | 470 kts | 99° |
| 2026-05-04 04:49 | 41.62640 | -78.93123 | 30974 ft | 469 kts | 99° |
| 2026-05-04 04:50 | 41.61669 | -78.84631 | 30969 ft | 470 kts | 99° |
| 2026-05-04 04:50 | 41.60675 | -78.75966 | 30960 ft | 470 kts | 99° |
| 2026-05-04 04:51 | 41.59716 | -78.67676 | 30971 ft | 470 kts | 99° |
| 2026-05-04 04:51 | 41.58707 | -78.59034 | 30967 ft | 470 kts | 100° |
| 2026-05-04 04:52 | 41.57709 | -78.50527 | 30966 ft | 471 kts | 100° |
| 2026-05-04 04:52 | 41.56691 | -78.41906 | 30969 ft | 471 kts | 100° |
| 2026-05-04 04:53 | 41.55671 | -78.33324 | 30978 ft | 471 kts | 100° |
| 2026-05-04 04:53 | 41.54656 | -78.24845 | 30970 ft | 469 kts | 101° |
| 2026-05-04 04:54 | 41.53660 | -78.16568 | 30981 ft | 471 kts | 101° |
| 2026-05-04 04:54 | 41.52619 | -78.07974 | 30973 ft | 472 kts | 101° |
| 2026-05-04 04:55 | 41.51599 | -77.99582 | 30982 ft | 472 kts | 101° |
| 2026-05-04 04:55 | 41.50505 | -77.91103 | 30982 ft | 472 kts | 103° |
| 2026-05-04 04:56 | 41.49292 | -77.82881 | 30978 ft | 471 kts | 103° |
| 2026-05-04 04:56 | 41.48085 | -77.74536 | 30975 ft | 472 kts | 103° |
| 2026-05-04 04:57 | 41.46890 | -77.66059 | 30975 ft | 472 kts | 103° |
| 2026-05-04 04:57 | 41.45679 | -77.57592 | 30972 ft | 472 kts | 103° |
| 2026-05-04 04:58 | 41.44461 | -77.49181 | 30977 ft | 472 kts | 103° |
| 2026-05-04 04:58 | 41.43240 | -77.40752 | 30970 ft | 472 kts | 104° |
| 2026-05-04 04:59 | 41.42012 | -77.32329 | 30982 ft | 472 kts | 104° |
| 2026-05-04 04:59 | 41.40782 | -77.23983 | 30989 ft | 473 kts | 104° |
| 2026-05-04 05:00 | 41.39531 | -77.15459 | 30968 ft | 472 kts | 104° |
| 2026-05-04 05:01 | 41.37647 | -77.02742 | 30968 ft | 473 kts | 105° |
| 2026-05-04 05:01 | 41.36397 | -76.94474 | 30973 ft | 474 kts | 105° |
| 2026-05-04 05:02 | 41.35197 | -76.86431 | 30974 ft | 474 kts | 105° |
| 2026-05-04 05:02 | 41.33932 | -76.78139 | 30991 ft | 472 kts | 109° |
| 2026-05-04 05:03 | 41.31958 | -76.70080 | 29832 ft | 464 kts | 111° |
| 2026-05-04 05:03 | 41.30870 | -76.66199 | 31417 ft | 443 kts | 112° |
| 2026-05-04 05:04 | 41.27604 | -76.54160 | 31453 ft | 457 kts | 110° |
| 2026-05-04 05:04 | 41.26536 | -76.50121 | 30826 ft | 476 kts | 110° |
| 2026-05-04 05:04 | 41.25423 | -76.45962 | 30638 ft | 470 kts | 111° |
| 2026-05-04 05:06 | 41.17869 | -76.18050 | 31159 ft | 461 kts | 111° |
| 2026-05-04 05:06 | 41.17147 | -76.15378 | 31070 ft | 435 kts | 114° |
| 2026-05-04 05:06 | 41.16167 | -76.11742 | 31811 ft | 433 kts | 117° |
| 2026-05-04 05:07 | 41.15093 | -76.07892 | 31206 ft | 461 kts | 118° |
| 2026-05-04 05:07 | 41.14016 | -76.04061 | 31171 ft | 473 kts | 117° |
| 2026-05-04 05:07 | 41.12838 | -75.99921 | 31071 ft | 488 kts | 117° |
| 2026-05-04 05:09 | 41.02390 | -75.61910 | 30980 ft | 490 kts | 111° |
| 2026-05-04 05:10 | 41.00133 | -75.53787 | 30988 ft | 490 kts | 111° |
| 2026-05-04 05:10 | 40.97794 | -75.45422 | 30980 ft | 491 kts | 111° |
| 2026-05-04 05:11 | 40.95553 | -75.37441 | 30988 ft | 491 kts | 111° |
| 2026-05-04 05:11 | 40.93249 | -75.29260 | 30969 ft | 491 kts | 111° |
| 2026-05-04 05:12 | 40.92086 | -75.25135 | 30518 ft | 481 kts | 112° |
| 2026-05-04 05:12 | 40.90973 | -75.21192 | 30166 ft | 469 kts | 112° |
| 2026-05-04 05:12 | 40.89821 | -75.17125 | 29430 ft | 467 kts | 111° |
| 2026-05-04 05:12 | 40.88684 | -75.13118 | 28771 ft | 463 kts | 111° |
| 2026-05-04 05:13 | 40.87569 | -75.09187 | 28227 ft | 458 kts | 111° |
| 2026-05-04 05:13 | 40.86468 | -75.05295 | 27565 ft | 458 kts | 111° |
| 2026-05-04 05:13 | 40.85375 | -75.01425 | 27050 ft | 462 kts | 111° |
| 2026-05-04 05:13 | 40.84321 | -74.97684 | 26406 ft | 466 kts | 111° |
| 2026-05-04 05:14 | 40.83203 | -74.93729 | 25815 ft | 466 kts | 111° |
| 2026-05-04 05:14 | 40.82120 | -74.89843 | 25235 ft | 465 kts | 109° |
| 2026-05-04 05:14 | 40.81258 | -74.85751 | 24588 ft | 463 kts | 102° |
| 2026-05-04 05:14 | 40.80660 | -74.81503 | 23986 ft | 456 kts | 98° |
| 2026-05-04 05:15 | 40.80529 | -74.77485 | 23419 ft | 446 kts | 81° |
| 2026-05-04 05:15 | 40.81069 | -74.73495 | 22896 ft | 439 kts | 75° |
| 2026-05-04 05:15 | 40.81745 | -74.69522 | 22259 ft | 438 kts | 74° |
| 2026-05-04 05:15 | 40.82419 | -74.65634 | 21853 ft | 431 kts | 73° |
| 2026-05-04 05:16 | 40.83077 | -74.61846 | 21273 ft | 430 kts | 73° |
| 2026-05-04 05:16 | 40.83729 | -74.58106 | 20841 ft | 425 kts | 73° |
| 2026-05-04 05:16 | 40.84463 | -74.54337 | 20327 ft | 417 kts | 66° |
| 2026-05-04 05:16 | 40.85800 | -74.51152 | 19920 ft | 403 kts | 45° |
| 2026-05-04 05:17 | 40.87830 | -74.48766 | 19702 ft | 390 kts | 29° |
| 2026-05-04 05:17 | 40.89881 | -74.46966 | 19555 ft | 388 kts | 27° |
| 2026-05-04 05:17 | 40.92125 | -74.45047 | 19353 ft | 388 kts | 26° |
| 2026-05-04 05:17 | 40.94370 | -74.43129 | 19178 ft | 386 kts | 26° |
| 2026-05-04 05:18 | 40.96606 | -74.41214 | 18894 ft | 386 kts | 26° |
| 2026-05-04 05:18 | 40.98788 | -74.39352 | 18347 ft | 385 kts | 26° |
| 2026-05-04 05:18 | 41.01060 | -74.37415 | 17790 ft | 379 kts | 26° |
| 2026-05-04 05:18 | 41.03241 | -74.35559 | 17262 ft | 371 kts | 26° |
| 2026-05-04 05:19 | 41.05403 | -74.33711 | 16747 ft | 363 kts | 26° |
| 2026-05-04 05:19 | 41.07402 | -74.31995 | 16270 ft | 356 kts | 26° |
| 2026-05-04 05:19 | 41.09440 | -74.30243 | 15787 ft | 349 kts | 26° |
| 2026-05-04 05:19 | 41.11460 | -74.28500 | 15316 ft | 343 kts | 26° |
| 2026-05-04 05:20 | 41.13431 | -74.26791 | 14840 ft | 337 kts | 26° |
| 2026-05-04 05:20 | 41.15363 | -74.25108 | 14389 ft | 332 kts | 26° |
| 2026-05-04 05:20 | 41.17259 | -74.23451 | 13941 ft | 327 kts | 27° |
| 2026-05-04 05:20 | 41.18946 | -74.21411 | 13443 ft | 335 kts | 48° |
| 2026-05-04 05:21 | 41.19926 | -74.18571 | 12961 ft | 345 kts | 72° |
| 2026-05-04 05:21 | 41.20005 | -74.15510 | 12504 ft | 350 kts | 97° |
| 2026-05-04 05:21 | 41.19108 | -74.12400 | 12014 ft | 350 kts | 123° |
| 2026-05-04 05:21 | 41.17491 | -74.10174 | 11563 ft | 344 kts | 149° |
| 2026-05-04 05:22 | 41.15319 | -74.08966 | 11114 ft | 328 kts | 175° |
| 2026-05-04 05:22 | 41.13138 | -74.08754 | 10726 ft | 318 kts | 184° |
| 2026-05-04 05:22 | 41.10932 | -74.08667 | 10319 ft | 315 kts | 184° |
| 2026-05-04 05:22 | 41.08795 | -74.08581 | 9899 ft | 307 kts | 184° |
| 2026-05-04 05:23 | 41.06733 | -74.08479 | 9465 ft | 291 kts | 184° |
| 2026-05-04 05:23 | 41.04878 | -74.08376 | 9057 ft | 280 kts | 184° |
| 2026-05-04 05:23 | 41.02972 | -74.08267 | 8643 ft | 269 kts | 184° |
| 2026-05-04 05:23 | 41.01143 | -74.08154 | 8255 ft | 259 kts | 184° |
| 2026-05-04 05:24 | 40.99377 | -74.08046 | 7885 ft | 250 kts | 184° |
| 2026-05-04 05:24 | 40.97666 | -74.07942 | 7537 ft | 243 kts | 184° |
| 2026-05-04 05:24 | 40.95989 | -74.07851 | 7241 ft | 246 kts | 184° |
| 2026-05-04 05:24 | 40.94250 | -74.07642 | 6931 ft | 250 kts | 178° |
| 2026-05-04 05:25 | 40.92528 | -74.07337 | 6621 ft | 251 kts | 178° |
| 2026-05-04 05:25 | 40.90857 | -74.07051 | 6309 ft | 249 kts | 178° |
| 2026-05-04 05:25 | 40.89164 | -74.06761 | 5996 ft | 235 kts | 178° |
| 2026-05-04 05:25 | 40.87608 | -74.06493 | 5718 ft | 225 kts | 178° |
| 2026-05-04 05:26 | 40.86067 | -74.06340 | 5352 ft | 218 kts | 185° |
| 2026-05-04 05:26 | 40.84614 | -74.06581 | 4888 ft | 203 kts | 208° |
| 2026-05-04 05:26 | 40.83409 | -74.07442 | 4481 ft | 190 kts | 216° |
| 2026-05-04 05:26 | 40.82229 | -74.08189 | 4056 ft | 185 kts | 209° |
| 2026-05-04 05:27 | 40.81123 | -74.08848 | 3652 ft | 173 kts | 212° |
| 2026-05-04 05:28 | 40.74653 | -74.13018 | 1417 ft | 141 kts | 208° |
| 2026-05-04 05:29 | 40.73769 | -74.13583 | 1128 ft | 141 kts | 207° |
| 2026-05-04 05:29 | 40.72905 | -74.14134 | 840 ft | 141 kts | 207° |
| 2026-05-04 05:29 | 40.72009 | -74.14707 | 541 ft | 141 kts | 207° |
| 2026-05-04 05:29 | 40.71134 | -74.15268 | 335 ft | 137 kts | 207° |
| 2026-05-04 05:31 | 40.68240 | -74.17223 | 19 ft | 6 kts | 235° |
| 2026-05-04 05:31 | 40.68215 | -74.17272 | 21 ft | 7 kts | 236° |
| 2026-05-04 05:32 | 40.68185 | -74.17331 | 21 ft | 7 kts | 236° |
| 2026-05-04 05:32 | 40.68158 | -74.17383 | 20 ft | 8 kts | 236° |
| 2026-05-04 05:32 | 40.68147 | -74.17449 | 21 ft | 8 kts | 293° |
| 2026-05-04 05:33 | 40.68203 | -74.17602 | 19 ft | 9 kts | 295° |
| 2026-05-04 05:33 | 40.68242 | -74.17648 | 21 ft | 8 kts | 0° |
| 2026-05-04 05:33 | 40.68300 | -74.17621 | 20 ft | 10 kts | 25° |
| 2026-05-04 05:33 | 40.68367 | -74.17578 | 22 ft | 12 kts | 26° |
| 2026-05-04 05:34 | 40.68445 | -74.17529 | 22 ft | 14 kts | 26° |
| 2026-05-04 05:34 | 40.68536 | -74.17471 | 22 ft | 16 kts | 26° |